Time;durP1;ratioP1;P1;durP2;ratioP2;P2;SDS_P1;SDS_P2;PMS_P1;PMS_P2;Temp;Humidity;BMP_temperature;BMP_pressure;BME280_temperature;BME280_humidity;BME280_pressure;Samples;Min_cycle;Max_cycle;Signal;HPM_P1;HPM_P2
2022/06/22 00:02:12;;;;;;;6.75;4.10;;;24.60;99.90;;;;;;5088661;28;20039;-51
2022/06/22 00:04:55;;;;;;;7.72;4.30;;;24.80;99.90;;;;;;5089548;28;20502;-52
2022/06/22 00:07:49;;;;;;;11.23;4.45;;;24.90;99.90;;;;;;5085038;28;20056;-51
2022/06/22 00:10:29;;;;;;;6.10;3.85;;;25.10;99.90;;;;;;5004224;28;21036;-52
2022/06/22 00:12:57;;;;;;;5.65;4.10;;;25.00;99.90;;;;;;5001404;28;20034;-51
2022/06/22 00:15:45;;;;;;;9.90;3.90;;;25.00;99.90;;;;;;5008083;28;20053;-51
2022/06/22 00:18:32;;;;;;;8.00;3.88;;;25.00;99.90;;;;;;5002801;28;20053;-51
2022/06/22 00:21:03;;;;;;;5.88;3.30;;;25.00;99.90;;;;;;4990670;28;20042;-52
2022/06/22 00:23:39;;;;;;;10.48;3.88;;;24.80;99.90;;;;;;4980586;28;20038;-51
2022/06/22 00:26:31;;;;;;;10.18;3.85;;;24.60;99.90;;;;;;4973429;28;20038;-52
2022/06/22 00:29:09;;;;;;;;;;;24.60;99.90;;;;;;4937749;29;20428;-51
2022/06/22 00:31:41;;;;;;;7.60;3.80;;;24.50;99.90;;;;;;4941416;29;19907;-52
2022/06/22 00:34:09;;;;;;;7.78;3.85;;;24.40;99.90;;;;;;4935042;29;20040;-52
2022/06/22 00:36:38;;;;;;;10.93;3.88;;;24.60;99.90;;;;;;4951097;29;20071;-51
2022/06/22 00:39:15;;;;;;;9.55;4.00;;;24.70;99.90;;;;;;4935052;29;20044;-52
2022/06/22 00:41:45;;;;;;;9.88;5.07;;;24.80;99.90;;;;;;4935122;29;20036;-52
2022/06/22 00:44:14;;;;;;;13.82;5.18;;;24.70;99.90;;;;;;4934684;29;20126;-52
2022/06/22 00:47:02;;;;;;;7.43;4.10;;;24.80;99.90;;;;;;4951968;28;20488;-51
2022/06/22 00:49:29;;;;;;;7.95;3.70;;;;;;;;;;5012105;28;20185;-51
2022/06/22 00:52:00;;;;;;;5.97;3.22;;;23.70;99.90;;;;;;5011415;28;20512;-52
2022/06/22 00:54:28;;;;;;;7.72;3.65;;;23.50;99.90;;;;;;5012603;28;20464;-51
2022/06/22 00:57:11;;;;;;;6.70;3.50;;;23.30;99.90;;;;;;5011828;28;20084;-52
2022/06/22 00:59:55;;;;;;;4.75;3.50;;;23.40;99.90;;;;;;4991723;28;20034;-51
2022/06/22 01:02:39;;;;;;;6.32;4.00;;;23.40;99.90;;;;;;5012762;28;20421;-51
2022/06/22 01:05:19;;;;;;;7.20;3.40;;;23.40;99.90;;;;;;5006379;28;20032;-52
2022/06/22 01:08:36;;;;;;;5.82;3.30;;;23.30;99.90;;;;;;5089787;28;20059;-52
2022/06/22 01:12:16;;;;;;;5.13;3.33;;;23.20;99.90;;;;;;5012532;28;20041;-51
2022/06/22 01:14:02;;;;;;;5.60;3.05;;;23.10;99.90;;;;;;5013711;28;20540;-51
2022/06/22 01:16:35;;;;;;;5.72;3.28;;;23.00;99.90;;;;;;5013522;28;20042;-51
2022/06/22 01:19:17;;;;;;;6.25;3.50;;;23.10;99.90;;;;;;5011918;28;20117;-51
2022/06/22 01:21:51;;;;;;;6.97;2.90;;;23.20;99.90;;;;;;5013072;28;20048;-53
2022/06/22 01:24:48;;;;;;;11.27;3.88;;;23.10;99.90;;;;;;5018578;28;20044;-51
2022/06/22 01:27:21;;;;;;;6.18;3.05;;;22.90;99.90;;;;;;5011462;28;20516;-51
2022/06/22 01:29:54;;;;;;;4.00;3.13;;;23.10;99.90;;;;;;5003221;28;20057;-52
2022/06/22 01:32:25;;;;;;;5.72;3.30;;;23.10;99.90;;;;;;5006336;28;20038;-51
2022/06/22 01:34:56;;;;;;;6.97;2.88;;;23.20;99.90;;;;;;5011800;28;20535;-53
2022/06/22 01:37:28;;;;;;;5.38;2.90;;;23.20;99.90;;;;;;4992866;28;20042;-51
2022/06/22 01:40:04;;;;;;;7.30;2.67;;;23.10;99.90;;;;;;5014354;28;20041;-51
2022/06/22 01:42:37;;;;;;;5.55;2.80;;;23.20;99.90;;;;;;5015174;28;20057;-51
2022/06/22 01:45:22;;;;;;;7.90;3.20;;;23.10;99.90;;;;;;5008766;28;20026;-51
2022/06/22 01:47:56;;;;;;;5.03;2.40;;;23.00;99.90;;;;;;5024611;28;20464;-52
2022/06/22 01:50:25;;;;;;;7.82;2.38;;;23.10;99.90;;;;;;5089374;28;20028;-52
2022/06/22 01:52:55;;;;;;;5.82;2.75;;;22.90;99.90;;;;;;5088557;28;20036;-51
2022/06/22 01:55:45;;;;;;;7.55;2.80;;;22.70;99.90;;;;;;5090160;28;20026;-52
2022/06/22 01:58:17;;;;;;;5.32;2.90;;;;;;;;;;5089761;28;20083;-53
2022/06/22 02:00:45;;;;;;;;;;;22.60;99.90;;;;;;5066826;28;20028;-52
2022/06/22 02:03:11;;;;;;;5.03;2.10;;;22.70;99.90;;;;;;5086811;28;19914;-52
2022/06/22 02:06:01;;;;;;;6.35;1.80;;;22.80;99.90;;;;;;5059547;28;20036;-52
2022/06/22 02:08:34;;;;;;;3.83;1.75;;;22.80;99.90;;;;;;5070918;28;20028;-52
2022/06/22 02:11:17;;;;;;;5.85;2.08;;;22.90;99.90;;;;;;5062366;28;20098;-51
2022/06/22 02:13:59;;;;;;;5.97;2.00;;;23.10;99.90;;;;;;5069403;28;20082;-51
2022/06/22 02:16:37;;;;;;;6.20;1.77;;;23.20;99.90;;;;;;5068899;28;20037;-52
2022/06/22 02:19:03;;;;;;;4.85;1.80;;;23.30;99.90;;;;;;5070198;28;20041;-52
2022/06/22 02:21:47;;;;;;;11.50;2.30;;;;;;;;;;5062099;28;20037;-51
2022/06/22 02:24:19;;;;;;;8.80;1.70;;;23.20;96.70;;;;;;5068104;28;20430;-51
2022/06/22 02:27:10;;;;;;;6.00;1.70;;;23.30;96.60;;;;;;5066794;28;20384;-51
2022/06/22 02:29:45;;;;;;;5.97;1.63;;;23.30;95.70;;;;;;5050871;28;20036;-51
2022/06/22 02:32:25;;;;;;;4.78;1.70;;;23.30;95.60;;;;;;4985524;28;20305;-51
2022/06/22 02:34:53;;;;;;;5.35;1.60;;;23.00;95.70;;;;;;5021786;28;20383;-51
2022/06/22 02:37:21;;;;;;;2.63;1.40;;;23.00;96.10;;;;;;5024289;28;20041;-51
2022/06/22 02:39:53;;;;;;;3.80;1.50;;;22.80;96.20;;;;;;5022372;28;20485;-52
2022/06/22 02:45:07;;;;;;;3.67;2.00;;;22.60;97.00;;;;;;5026454;28;20044;-51
2022/06/22 02:48:01;;;;;;;4.78;2.10;;;22.70;97.20;;;;;;5028021;28;20052;-51
2022/06/22 02:51:01;;;;;;;3.78;1.98;;;22.60;97.50;;;;;;5025723;28;20869;-51
2022/06/22 02:53:39;;;;;;;5.95;1.67;;;22.60;97.20;;;;;;4990562;28;20063;-51
2022/06/22 02:56:10;;;;;;;6.90;2.78;;;22.70;97.40;;;;;;5024964;28;20469;-51
2022/06/22 02:58:37;;;;;;;8.02;1.90;;;22.60;97.20;;;;;;5028003;28;20474;-52
2022/06/22 03:01:12;;;;;;;4.35;1.75;;;22.50;97.80;;;;;;5027874;28;20068;-51
2022/06/22 03:04:11;;;;;;;6.75;1.70;;;22.70;97.50;;;;;;5054709;28;20099;-51
2022/06/22 03:06:42;;;;;;;3.95;2.00;;;22.50;97.60;;;;;;5066011;28;20495;-51
2022/06/22 03:09:09;;;;;;;4.43;1.95;;;22.30;98.20;;;;;;5052199;28;20433;-52
2022/06/22 03:11:42;;;;;;;5.18;1.90;;;22.10;98.10;;;;;;5066380;28;20040;-52
2022/06/22 03:14:26;;;;;;;4.30;2.10;;;21.80;98.20;;;;;;5067892;28;20032;-52
2022/06/22 03:17:10;;;;;;;5.97;2.72;;;21.60;98.80;;;;;;5047855;28;20047;-51
2022/06/22 03:19:43;;;;;;;4.25;2.42;;;;;;;;;;5065271;28;20111;-52
2022/06/22 03:22:30;;;;;;;2.70;1.75;;;;;;;;;;5070349;28;20029;-52
2022/06/22 03:25:18;;;;;;;4.90;2.00;;;20.90;99.90;;;;;;5061982;28;20040;-53
2022/06/22 03:27:48;;;;;;;4.57;2.40;;;20.90;99.90;;;;;;5071535;28;20428;-52
2022/06/22 03:30:17;;;;;;;3.67;2.22;;;;;;;;;;5031912;28;20373;-52
2022/06/22 03:32:46;;;;;;;6.45;2.65;;;;;;;;;;5069839;28;20043;-52
2022/06/22 03:35:15;;;;;;;8.18;2.45;;;20.50;99.90;;;;;;5067294;28;20036;-52
2022/06/22 03:37:57;;;;;;;4.90;2.70;;;20.50;99.90;;;;;;5067682;28;20032;-52
2022/06/22 03:40:27;;;;;;;5.15;2.55;;;20.70;99.90;;;;;;5063193;28;20383;-52
2022/06/22 03:43:07;;;;;;;4.20;2.40;;;20.60;99.90;;;;;;5064690;28;20032;-52
2022/06/22 03:45:45;;;;;;;4.25;2.22;;;20.70;99.90;;;;;;5065008;28;20055;-52
2022/06/22 03:48:17;;;;;;;3.28;2.20;;;20.70;99.90;;;;;;5065468;28;20073;-52
2022/06/22 03:50:53;;;;;;;6.18;2.58;;;20.80;99.90;;;;;;5067205;28;20028;-52
2022/06/22 03:53:51;;;;;;;4.57;2.55;;;20.70;99.90;;;;;;5056870;28;20379;-52
2022/06/22 03:56:26;;;;;;;8.10;3.22;;;21.00;99.90;;;;;;5071333;28;20043;-52
2022/06/22 03:58:53;;;;;;;6.13;2.47;;;21.30;99.90;;;;;;5074422;28;20399;-52
2022/06/22 04:01:20;;;;;;;5.32;2.08;;;;;;;;;;5067278;28;20025;-52
2022/06/22 04:03:46;;;;;;;3.70;2.10;;;;;;;;;;5070787;28;20135;-52
2022/06/22 04:06:38;;;;;;;3.83;2.40;;;;;;;;;;5079964;28;20048;-51
2022/06/22 04:09:07;;;;;;;5.30;2.10;;;;;;;;;;5005707;28;20482;-52
2022/06/22 04:11:39;;;;;;;4.78;3.13;;;;;;;;;;5006963;28;20046;-52
2022/06/22 04:14:11;;;;;;;6.80;2.88;;;;;;;;;;5006787;28;20048;-52
2022/06/22 04:16:39;;;;;;;7.75;3.47;;;;;;;;;;5007489;28;20038;-52
2022/06/22 04:19:16;;;;;;;6.60;2.40;;;;;;;;;;5005047;28;20030;-52
2022/06/22 04:21:46;;;;;;;7.43;2.80;;;;;;;;;;5008262;28;20033;-52
2022/06/22 04:24:26;;;;;;;6.22;2.10;;;;;;;;;;5000699;28;20113;-52
2022/06/22 04:27:05;;;;;;;2.72;2.10;;;21.80;99.90;;;;;;5005033;28;20045;-52
2022/06/22 04:29:52;;;;;;;4.78;1.92;;;22.20;99.90;;;;;;5010081;28;20049;-52
2022/06/22 04:32:27;;;;;;;4.35;2.03;;;22.40;99.90;;;;;;5005975;28;20042;-52
2022/06/22 04:35:22;;;;;;;6.35;2.20;;;22.40;99.90;;;;;;5007175;28;20030;-52
2022/06/22 04:37:55;;;;;;;4.53;2.42;;;22.50;99.90;;;;;;5002653;28;20053;-52
2022/06/22 04:41:08;;;;;;;7.30;2.78;;;22.60;99.90;;;;;;5006254;28;20449;-51
2022/06/22 04:43:36;;;;;;;5.15;2.50;;;22.70;99.90;;;;;;4999685;28;20442;-52
2022/06/22 04:46:02;;;;;;;3.80;2.10;;;22.80;99.90;;;;;;5050973;28;20055;-52
2022/06/22 04:48:28;;;;;;;9.10;2.85;;;22.90;99.90;;;;;;5091709;28;20036;-52
2022/06/22 04:50:58;;;;;;;7.45;2.72;;;22.80;99.90;;;;;;5085725;28;20047;-52
2022/06/22 04:53:33;;;;;;;6.40;2.70;;;;;;;;;;5035722;28;20036;-51
2022/06/22 04:56:02;;;;;;;10.07;2.65;;;;;;;;;;5093941;28;20046;-52
2022/06/22 04:58:37;;;;;;;6.07;2.28;;;;;;;;;;5070515;28;20059;-52
2022/06/22 05:01:04;;;;;;;4.07;2.53;;;;;;;;;;5091079;28;20028;-52
2022/06/22 05:03:31;;;;;;;10.80;2.40;;;23.70;99.90;;;;;;5050874;28;20117;-53
2022/06/22 05:06:00;;;;;;;8.07;3.08;;;;;;;;;;5072286;28;20083;-51
2022/06/22 05:08:34;;;;;;;6.25;2.70;;;;;;;;;;5088248;28;20036;-52
2022/06/22 05:11:01;;;;;;;5.80;1.95;;;24.00;99.80;;;;;;5090771;28;20476;-52
2022/06/22 05:13:32;;;;;;;4.75;1.73;;;24.10;99.10;;;;;;5088561;28;20074;-51
2022/06/22 05:15:59;;;;;;;2.35;1.55;;;;;;;;;;5088088;28;20487;-51
2022/06/22 05:18:30;;;;;;;2.75;1.15;;;24.30;99.90;;;;;;5086457;28;20085;-51
2022/06/22 05:21:05;;;;;;;7.32;1.80;;;24.30;99.90;;;;;;5043007;28;20052;-51
2022/06/22 05:23:31;;;;;;;4.93;1.70;;;24.20;95.00;;;;;;5040465;28;20037;-52
2022/06/22 05:26:02;;;;;;;7.05;1.42;;;24.10;94.60;;;;;;5048911;28;20407;-51
2022/06/22 05:28:41;;;;;;;3.45;1.60;;;24.10;94.90;;;;;;5044301;28;20029;-51
2022/06/22 05:31:11;;;;;;;6.50;1.67;;;24.00;95.30;;;;;;5039564;28;20036;-51
2022/06/22 05:33:41;;;;;;;3.53;1.70;;;24.00;95.50;;;;;;5046039;28;20524;-51
2022/06/22 05:36:10;;;;;;;6.90;1.90;;;24.10;95.20;;;;;;5045024;28;20061;-52
2022/06/22 05:38:40;;;;;;;7.18;1.60;;;24.00;95.20;;;;;;5051569;28;20041;-51
2022/06/22 05:41:08;;;;;;;2.22;1.23;;;24.10;95.20;;;;;;5044605;28;20492;-51
2022/06/22 05:43:37;;;;;;;5.32;1.50;;;24.20;95.20;;;;;;5044453;28;20112;-52
2022/06/22 05:46:05;;;;;;;3.83;1.42;;;24.60;99.90;;;;;;5042117;28;20080;-51
2022/06/22 05:48:34;;;;;;;7.78;1.35;;;24.70;95.80;;;;;;5047753;28;20033;-52
2022/06/22 05:51:09;;;;;;;2.53;1.45;;;24.70;95.30;;;;;;5043645;28;20108;-52
2022/06/22 05:53:41;;;;;;;5.95;1.77;;;;;;;;;;5050088;28;20437;-52
2022/06/22 05:56:40;;;;;;;5.35;1.65;;;25.00;99.90;;;;;;5036657;28;20096;-52
2022/06/22 05:59:36;;;;;;;5.95;2.42;;;25.10;99.90;;;;;;5079907;28;20487;-51
2022/06/22 06:02:15;;;;;;;9.38;3.40;;;25.00;99.90;;;;;;5089770;28;20040;-52
2022/06/22 06:04:48;;;;;;;4.72;1.83;;;25.10;99.90;;;;;;5047623;28;20056;-52
2022/06/22 06:07:34;;;;;;;4.65;1.88;;;25.30;99.90;;;;;;5056068;28;20087;-52
2022/06/22 06:10:03;;;;;;;3.45;1.70;;;25.20;99.90;;;;;;5088521;28;20036;-51
2022/06/22 06:12:40;;;;;;;5.85;1.33;;;25.30;97.30;;;;;;5091536;28;20451;-51
2022/06/22 06:15:09;;;;;;;4.93;1.02;;;25.30;91.20;;;;;;5087894;28;20028;-51
2022/06/22 06:17:40;;;;;;;2.53;1.30;;;25.20;91.50;;;;;;5048055;28;20084;-51
2022/06/22 06:20:22;;;;;;;3.47;1.23;;;25.00;91.50;;;;;;5072463;28;20492;-51
2022/06/22 06:22:51;;;;;;;3.28;1.10;;;24.90;90.80;;;;;;5055633;28;20129;-52
2022/06/22 06:28:20;;;;;;;3.70;1.67;;;25.00;90.60;;;;;;5041780;28;20040;-51
2022/06/22 06:30:50;;;;;;;4.13;1.30;;;25.20;91.60;;;;;;5047185;28;20393;-52
2022/06/22 06:33:28;;;;;;;2.55;1.40;;;25.30;91.40;;;;;;5043002;28;20034;-52
2022/06/22 06:36:07;;;;;;;4.82;1.25;;;25.00;91.10;;;;;;5040514;28;20048;-51
2022/06/22 06:38:38;;;;;;;4.13;1.17;;;25.30;91.40;;;;;;5042542;28;20045;-53
2022/06/22 06:41:13;;;;;;;3.03;1.23;;;;;;;;;;5044194;28;20039;-51
2022/06/22 06:43:39;;;;;;;2.97;1.20;;;;;;;;;;5037512;28;20042;-51
2022/06/22 06:46:20;;;;;;;5.57;1.63;;;;;;;;;;5014503;28;20575;-51
2022/06/22 06:48:48;;;;;;;3.28;1.20;;;;;;;;;;5040209;28;20146;-51
2022/06/22 06:51:17;;;;;;;1.73;1.08;;;26.00;91.20;;;;;;5043509;28;20040;-52
2022/06/22 06:53:55;;;;;;;3.50;1.27;;;26.00;91.40;;;;;;4972207;28;20037;-51
2022/06/22 06:56:25;;;;;;;2.53;1.27;;;;;;;;;;5004695;28;20026;-51
2022/06/22 06:58:55;;;;;;;3.20;1.25;;;26.30;99.90;;;;;;5020684;28;20448;-52
2022/06/22 07:01:27;;;;;;;4.93;1.27;;;26.20;90.80;;;;;;5029477;28;20370;-52
2022/06/22 07:03:59;;;;;;;3.92;1.10;;;26.30;90.90;;;;;;5043023;28;20555;-51
2022/06/22 07:06:26;;;;;;;4.32;1.25;;;26.40;90.60;;;;;;5028000;28;20041;-51
2022/06/22 07:08:55;;;;;;;2.08;1.23;;;;;;;;;;5010263;28;20036;-51
2022/06/22 07:11:37;;;;;;;6.07;1.17;;;26.60;96.50;;;;;;5047233;28;20032;-51
2022/06/22 07:14:09;;;;;;;5.05;1.40;;;;;;;;;;5045303;28;20136;-51
2022/06/22 07:16:36;;;;;;;3.20;1.42;;;;;;;;;;5037467;28;20033;-51
2022/06/22 07:19:13;;;;;;;4.38;1.30;;;26.50;89.30;;;;;;4995079;28;20389;-52
2022/06/22 07:22:09;;;;;;;1.63;1.10;;;26.30;90.20;;;;;;5044485;28;20638;-51
2022/06/22 07:24:50;;;;;;;6.25;3.97;;;26.20;89.10;;;;;;4993521;28;20469;-52
2022/06/22 07:27:24;;;;;;;42.22;10.13;;;26.30;90.40;;;;;;4988512;28;20081;-51
2022/06/22 07:30:13;;;;;;;11.60;4.63;;;26.20;90.40;;;;;;5001332;28;20038;-51
2022/06/22 07:32:59;;;;;;;4.53;2.30;;;26.20;90.20;;;;;;4994341;28;20371;-50
2022/06/22 07:35:38;;;;;;;1.95;1.15;;;26.20;89.30;;;;;;4973354;28;20490;-48
2022/06/22 07:38:11;;;;;;;5.65;1.70;;;26.30;89.20;;;;;;4963757;28;20054;-50
2022/06/22 07:40:39;;;;;;;2.90;1.30;;;26.20;89.60;;;;;;5005573;28;20034;-53
2022/06/22 07:43:09;;;;;;;4.15;1.75;;;26.10;89.90;;;;;;5004729;28;20045;-47
2022/06/22 07:45:35;;;;;;;3.15;1.80;;;26.10;89.70;;;;;;4961666;28;20049;-45
2022/06/22 07:48:14;;;;;;;4.45;2.25;;;25.90;90.00;;;;;;4961288;28;20058;-47
2022/06/22 07:50:48;;;;;;;3.85;1.20;;;25.90;88.80;;;;;;5002383;28;20045;-44
2022/06/22 07:53:29;;;;;;;6.85;1.40;;;25.80;88.80;;;;;;4960807;28;20046;-46
2022/06/22 07:56:15;;;;;;;5.65;1.23;;;25.90;89.80;;;;;;4996348;28;20042;-44
2022/06/22 07:58:54;;;;;;;2.28;1.58;;;25.80;89.80;;;;;;4989913;28;20063;-46
2022/06/22 08:01:29;;;;;;;4.63;1.40;;;25.70;89.80;;;;;;5032692;28;20051;-48
2022/06/22 08:04:25;;;;;;;2.15;1.30;;;25.60;90.30;;;;;;5048710;28;20128;-46
2022/06/22 08:07:15;;;;;;;4.30;2.17;;;25.80;91.00;;;;;;5021946;28;20056;-47
2022/06/22 08:09:55;;;;;;;4.90;1.63;;;25.90;90.70;;;;;;5047845;28;20029;-48
2022/06/22 08:12:44;;;;;;;2.78;2.20;;;26.10;90.40;;;;;;5016400;28;20037;-48
2022/06/22 08:15:16;;;;;;;3.90;2.38;;;26.20;90.70;;;;;;5042381;28;20072;-48
2022/06/22 08:17:50;;;;;;;6.43;2.55;;;26.30;90.80;;;;;;5040310;28;20048;-47
2022/06/22 08:20:26;;;;;;;3.65;2.47;;;26.20;90.10;;;;;;5045057;28;20029;-48
2022/06/22 08:22:53;;;;;;;7.63;2.40;;;26.20;90.50;;;;;;5008635;28;20529;-47
2022/06/22 08:25:22;;;;;;;4.55;1.95;;;26.30;90.80;;;;;;5010985;28;20643;-47
2022/06/22 08:27:47;;;;;;;3.28;1.42;;;26.40;90.50;;;;;;4994387;28;20038;-49
2022/06/22 08:30:15;;;;;;;11.15;2.20;;;26.40;90.20;;;;;;5012168;28;20057;-47
2022/06/22 08:33:03;;;;;;;3.47;1.70;;;26.60;90.40;;;;;;5011592;28;20104;-47
2022/06/22 08:35:43;;;;;;;2.55;1.42;;;26.60;90.70;;;;;;5040086;28;20040;-47
2022/06/22 08:38:26;;;;;;;2.53;1.33;;;26.60;90.20;;;;;;4995313;28;20033;-51
2022/06/22 08:41:13;;;;;;;6.35;1.67;;;26.50;90.00;;;;;;5010862;28;20042;-48
2022/06/22 08:43:45;;;;;;;6.20;1.58;;;;;;;;;;5007901;28;20042;-49
2022/06/22 08:46:31;;;;;;;4.47;1.65;;;;;;;;;;4970086;28;20046;-47
2022/06/22 08:49:05;;;;;;;6.35;1.70;;;27.80;89.70;;;;;;5008686;28;20049;-49
2022/06/22 08:52:01;;;;;;;2.75;1.70;;;27.80;85.50;;;;;;5006240;28;20030;-48
2022/06/22 08:54:52;;;;;;;2.67;1.55;;;28.10;85.80;;;;;;5027951;28;20079;-48
2022/06/22 08:57:40;;;;;;;2.63;1.65;;;28.60;85.50;;;;;;5028332;28;20053;-43
2022/06/22 09:00:06;;;;;;;2.80;1.65;;;;;;;;;;5046227;28;20534;-42
2022/06/22 09:02:51;;;;;;;3.75;1.70;;;;;;;;;;5050217;28;20040;-46
2022/06/22 09:05:20;;;;;;;5.38;1.73;;;;;;;;;;5048142;28;20053;-42
2022/06/22 09:08:04;;;;;;;4.40;1.60;;;;;;;;;;5051382;28;20021;-44
2022/06/22 09:10:49;;;;;;;3.08;1.65;;;;;;;;;;5061808;28;20090;-45
2022/06/22 09:13:38;;;;;;;9.18;1.67;;;;;;;;;;5067194;28;20037;-43
2022/06/22 09:16:30;;;;;;;4.90;2.05;;;29.70;83.00;;;;;;5015141;28;20048;-44
2022/06/22 09:19:50;;;;;;;3.70;1.80;;;29.90;84.40;;;;;;5015202;28;20044;-53
2022/06/22 09:22:23;;;;;;;7.50;2.13;;;30.00;83.50;;;;;;4970990;28;20046;-46
2022/06/22 09:24:51;;;;;;;4.75;1.50;;;30.10;84.00;;;;;;4971255;28;20063;-49
2022/06/22 09:27:18;;;;;;;7.65;2.17;;;30.30;83.50;;;;;;4971622;28;20043;-48
2022/06/22 09:29:53;;;;;;;11.30;2.20;;;30.20;83.50;;;;;;4937355;28;20058;-47
2022/06/22 09:32:49;;;;;;;7.30;2.20;;;30.30;83.30;;;;;;4973006;28;20034;-43
2022/06/22 09:35:17;;;;;;;7.00;2.08;;;30.40;83.00;;;;;;4972233;28;20494;-42
2022/06/22 09:37:52;;;;;;;6.65;2.28;;;30.60;89.80;;;;;;4972857;28;20043;-43
2022/06/22 09:40:45;;;;;;;7.20;1.95;;;30.50;87.00;;;;;;4972099;28;20125;-42
2022/06/22 09:43:44;;;;;;;4.65;1.65;;;30.40;85.20;;;;;;4972060;28;20038;-42
2022/06/22 09:46:24;;;;;;;7.28;1.85;;;30.60;87.20;;;;;;4968295;28;20490;-44
2022/06/22 09:49:09;;;;;;;3.17;1.55;;;;;;;;;;4971331;28;20109;-45
2022/06/22 09:51:48;;;;;;;2.85;1.60;;;30.90;78.90;;;;;;4970922;28;20045;-48
2022/06/22 09:57:24;;;;;;;10.70;2.15;;;;;;;;;;4990587;28;20096;-48
2022/06/22 10:00:04;;;;;;;6.43;2.78;;;31.10;95.90;;;;;;4952330;28;20073;-54
2022/06/22 10:02:42;;;;;;;5.03;1.80;;;;;;;;;;4953334;29;20042;-49
2022/06/22 10:05:08;;;;;;;3.80;1.70;;;;;;;;;;4953175;28;20046;-46
2022/06/22 10:07:42;;;;;;;5.88;1.98;;;31.40;85.00;;;;;;4953851;28;20039;-50
2022/06/22 10:10:44;;;;;;;6.40;2.22;;;31.20;93.20;;;;;;4953876;28;20203;-46
2022/06/22 10:13:34;;;;;;;5.55;1.88;;;31.60;78.70;;;;;;4956400;28;20039;-46
2022/06/22 10:16:16;;;;;;;6.03;2.10;;;;;;;;;;4957334;28;20452;-45
2022/06/22 10:19:21;;;;;;;3.33;1.42;;;32.00;94.00;;;;;;4936015;28;20521;-45
2022/06/22 10:22:18;;;;;;;4.68;1.70;;;32.30;95.30;;;;;;4955827;28;20249;-44
2022/06/22 10:25:14;;;;;;;4.95;1.77;;;32.00;81.00;;;;;;4961413;28;20140;-44
2022/06/22 10:27:51;;;;;;;3.92;1.60;;;;;;;;;;4924657;28;20067;-48
2022/06/22 10:30:25;;;;;;;9.45;1.92;;;32.80;93.90;;;;;;4938550;28;20167;-44
2022/06/22 10:33:27;;;;;;;5.07;1.73;;;32.50;91.90;;;;;;4959132;28;20542;-45
2022/06/22 10:36:49;;;;;;;7.15;1.73;;;32.50;79.20;;;;;;5005174;28;20058;-47
2022/06/22 10:39:41;;;;;;;6.65;1.83;;;32.60;84.40;;;;;;4971036;28;20042;-45
2022/06/22 10:45:09;;;;;;;3.90;1.98;;;;;;;;;;4970989;28;20057;-52
2022/06/22 10:47:53;;;;;;;5.57;2.50;;;33.20;92.00;;;;;;4970983;28;20027;-48
2022/06/22 10:50:22;;;;;;;5.03;1.80;;;32.40;92.60;;;;;;4971781;28;20431;-52
2022/06/22 10:53:06;;;;;;;3.80;1.80;;;32.00;90.90;;;;;;4971839;28;20415;-46
2022/06/22 10:55:39;;;;;;;2.83;2.05;;;32.60;91.40;;;;;;4971992;28;20062;-47
2022/06/22 10:58:13;;;;;;;10.77;1.75;;;33.00;92.50;;;;;;4969921;28;20053;-48
2022/06/22 11:00:42;;;;;;;3.53;1.30;;;32.70;91.20;;;;;;4971072;28;20038;-48
2022/06/22 11:03:26;;;;;;;2.70;1.20;;;32.50;90.80;;;;;;4972532;28;20035;-50
2022/06/22 11:06:16;;;;;;;3.63;1.10;;;32.20;90.50;;;;;;4981568;28;20039;-50
2022/06/22 11:09:12;;;;;;;2.58;1.30;;;32.70;71.70;;;;;;4991299;28;20126;-49
2022/06/22 11:11:58;;;;;;;3.00;1.20;;;32.00;91.10;;;;;;5065751;28;20406;-50
2022/06/22 11:14:24;;;;;;;2.17;1.27;;;;;;;;;;5071618;28;20387;-49
2022/06/22 11:16:56;;;;;;;1.83;1.30;;;32.80;70.50;;;;;;5072262;28;20033;-51
2022/06/22 11:19:25;;;;;;;2.47;1.40;;;32.80;70.00;;;;;;5065508;28;20032;-49
2022/06/22 11:22:28;;;;;;;3.20;1.90;;;32.20;70.40;;;;;;5071746;28;20039;-49
2022/06/22 11:25:18;;;;;;;2.88;1.55;;;32.40;71.60;;;;;;5065443;28;20392;-49
2022/06/22 11:33:44;;;;;;;8.27;2.53;;;33.10;72.90;;;;;;5072081;28;20063;-48
2022/06/22 11:36:36;;;;;;;9.65;2.45;;;33.20;72.50;;;;;;5072075;28;20060;-49
2022/06/22 11:39:37;;;;;;;9.30;2.85;;;33.20;91.80;;;;;;5000591;28;20421;-49
2022/06/22 11:54:51;;;;;;;4.45;2.40;;;33.90;72.40;;;;;;5138334;27;20398;-49
2022/06/22 11:58:00;;;;;;;4.90;2.20;;;34.00;72.50;;;;;;5124364;27;20385;-53
2022/06/22 12:00:29;;;;;;;7.60;2.60;;;33.60;71.70;;;;;;5132653;27;20027;-52
2022/06/22 12:03:01;;;;;;;4.30;2.25;;;34.10;73.30;;;;;;5129896;27;20076;-51
2022/06/22 12:05:45;;;;;;;4.00;2.20;;;34.20;72.30;;;;;;5093918;28;20040;-57
2022/06/22 12:08:30;;;;;;;6.43;3.13;;;32.50;72.60;;;;;;5131445;27;20061;-50
2022/06/22 12:11:14;;;;;;;6.32;3.15;;;33.00;73.60;;;;;;5134799;27;20374;-48
2022/06/22 12:15:04;;;;;;;5.80;2.65;;;33.60;75.90;;;;;;5129170;27;20028;-50
2022/06/22 12:17:04;;;;;;;9.65;3.22;;;33.80;74.50;;;;;;5134353;27;20473;-49
2022/06/22 12:19:38;;;;;;;11.13;4.90;;;34.00;75.20;;;;;;5065853;28;20377;-56
2022/06/22 12:22:27;;;;;;;8.77;3.58;;;34.00;76.90;;;;;;5061642;28;20423;-54
2022/06/22 12:25:42;;;;;;;7.57;4.25;;;34.20;75.90;;;;;;5060916;28;20028;-52
2022/06/22 12:28:44;;;;;;;7.18;4.63;;;34.40;76.60;;;;;;4988020;28;20576;-55
2022/06/22 12:31:19;;;;;;;7.05;4.32;;;34.20;78.50;;;;;;4985795;28;20089;-56
2022/06/22 12:33:58;;;;;;;8.18;4.95;;;34.10;78.60;;;;;;4994494;28;20110;-55
2022/06/22 12:36:30;;;;;;;7.60;4.63;;;34.20;78.40;;;;;;4984642;28;20054;-54
2022/06/22 12:39:19;;;;;;;6.43;3.92;;;34.10;77.30;;;;;;4982178;28;20050;-55
2022/06/22 12:42:12;;;;;;;7.50;4.70;;;34.40;78.00;;;;;;4991873;28;20045;-56
2022/06/22 12:44:43;;;;;;;8.65;3.90;;;34.40;78.00;;;;;;4990234;28;20098;-57
2022/06/22 12:47:42;;;;;;;11.05;4.00;;;34.50;79.00;;;;;;4985609;28;20066;-53
2022/06/22 12:50:46;;;;;;;7.13;4.13;;;34.40;79.70;;;;;;4987510;28;20038;-53
2022/06/22 12:53:24;;;;;;;5.63;3.78;;;34.50;78.80;;;;;;4990176;28;20049;-52
2022/06/22 12:55:58;;;;;;;8.20;4.40;;;34.50;77.70;;;;;;5002663;28;20031;-57
2022/06/22 12:58:28;;;;;;;9.35;4.10;;;34.70;77.40;;;;;;4993926;28;20049;-55
2022/06/22 13:00:58;;;;;;;7.00;4.40;;;34.60;79.40;;;;;;4993595;28;20057;-54
2022/06/22 13:03:31;;;;;;;7.68;3.85;;;34.60;78.50;;;;;;5002832;28;20038;-54
2022/06/22 13:05:57;;;;;;;9.45;4.30;;;34.60;78.90;;;;;;5084877;28;20495;-52
2022/06/22 13:08:26;;;;;;;9.68;4.45;;;34.40;77.90;;;;;;5085087;28;20064;-55
2022/06/22 13:11:01;;;;;;;8.02;3.90;;;34.50;78.00;;;;;;5082559;28;20052;-53
2022/06/22 13:13:53;;;;;;;8.48;4.50;;;34.20;78.60;;;;;;5080381;28;20423;-55
2022/06/22 13:16:24;;;;;;;7.53;4.20;;;34.10;78.40;;;;;;5066502;28;20066;-56
2022/06/22 13:18:56;;;;;;;11.00;4.03;;;33.90;78.40;;;;;;5079021;28;20483;-55
2022/06/22 13:21:37;;;;;;;4.78;3.25;;;33.80;78.30;;;;;;5051063;28;20491;-56
2022/06/22 13:24:15;;;;;;;9.15;3.53;;;33.90;78.70;;;;;;5080250;28;20043;-54
2022/06/22 13:26:43;;;;;;;7.80;4.18;;;33.90;78.70;;;;;;5076022;28;20550;-54
2022/06/22 13:29:38;;;;;;;7.60;3.70;;;34.10;78.50;;;;;;5052382;28;20047;-54
2022/06/22 13:32:07;;;;;;;8.48;3.85;;;34.10;77.80;;;;;;5073390;28;20395;-54
2022/06/22 13:34:50;;;;;;;9.32;4.05;;;33.90;78.90;;;;;;5114344;28;20019;-55
2022/06/22 13:37:36;;;;;;;10.68;3.85;;;33.60;79.40;;;;;;5087533;28;20496;-53
2022/06/22 13:40:09;;;;;;;8.93;3.85;;;33.50;79.00;;;;;;5113359;28;20110;-54
2022/06/22 13:43:17;;;;;;;10.45;3.90;;;33.30;79.70;;;;;;5112761;28;20047;-56
2022/06/22 13:45:51;;;;;;;10.25;3.70;;;33.40;80.00;;;;;;5113947;28;20016;-52
2022/06/22 13:48:33;;;;;;;8.48;3.85;;;33.50;79.00;;;;;;5112388;28;20027;-53
2022/06/22 13:51:24;;;;;;;10.18;4.15;;;33.60;79.70;;;;;;5112139;28;20030;-53
2022/06/22 13:54:13;;;;;;;10.57;4.13;;;33.60;80.10;;;;;;5114391;28;20040;-52
2022/06/22 13:57:03;;;;;;;8.55;4.18;;;33.50;80.50;;;;;;5112735;27;20031;-52
2022/06/22 13:59:51;;;;;;;8.85;3.72;;;33.50;80.00;;;;;;5113467;28;20153;-54
2022/06/22 14:02:42;;;;;;;6.88;3.80;;;33.30;81.10;;;;;;5113761;28;20047;-50
2022/06/22 14:05:25;;;;;;;11.27;4.22;;;33.30;81.70;;;;;;5107600;27;20070;-45
2022/06/22 14:08:10;;;;;;;10.25;3.67;;;33.30;81.40;;;;;;5113557;28;20023;-47
2022/06/22 14:10:57;;;;;;;13.90;4.70;;;33.40;82.40;;;;;;5113576;28;20412;-50
2022/06/22 14:13:28;;;;;;;7.18;3.53;;;33.50;83.30;;;;;;5113235;28;20032;-51
2022/06/22 14:16:09;;;;;;;7.43;3.65;;;33.50;81.60;;;;;;5109252;28;20372;-49
2022/06/22 14:19:13;;;;;;;;;;;33.40;82.10;;;;;;5110441;28;20122;-53
2022/06/22 14:21:43;;;;;;;7.45;3.35;;;33.80;82.30;;;;;;5068539;28;20377;-52
2022/06/22 14:24:17;;;;;;;11.32;4.57;;;33.70;82.60;;;;;;5088503;28;20032;-54
2022/06/22 14:27:14;;;;;;;8.15;4.35;;;33.70;82.30;;;;;;5087148;28;20119;-49
2022/06/22 14:30:01;;;;;;;11.13;4.47;;;33.50;82.30;;;;;;5050960;28;20188;-51
2022/06/22 14:32:48;;;;;;;12.02;3.90;;;33.30;82.60;;;;;;5051295;28;20127;-50
2022/06/22 14:35:16;;;;;;;12.95;4.78;;;32.70;82.70;;;;;;5047856;28;20122;-50